sensor_id;sensor_type;location;lat;lon;timestamp;temperature;humidity
22544;DHT22;11438;52.044;8.716;2023-03-01T00:00:41;2.80;90.30
22544;DHT22;11438;52.044;8.716;2023-03-01T00:03:11;2.80;90.30
22544;DHT22;11438;52.044;8.716;2023-03-01T00:05:44;2.80;90.30
22544;DHT22;11438;52.044;8.716;2023-03-01T00:08:09;2.80;90.30
22544;DHT22;11438;52.044;8.716;2023-03-01T00:10:35;2.80;90.30
22544;DHT22;11438;52.044;8.716;2023-03-01T00:13:01;2.70;90.40
22544;DHT22;11438;52.044;8.716;2023-03-01T00:15:26;2.70;90.40
22544;DHT22;11438;52.044;8.716;2023-03-01T00:17:52;2.70;90.40
22544;DHT22;11438;52.044;8.716;2023-03-01T00:20:17;2.70;90.40
22544;DHT22;11438;52.044;8.716;2023-03-01T00:22:43;2.70;90.40
22544;DHT22;11438;52.044;8.716;2023-03-01T00:25:08;2.70;90.40
22544;DHT22;11438;52.044;8.716;2023-03-01T00:27:34;2.60;90.40
22544;DHT22;11438;52.044;8.716;2023-03-01T00:30:00;2.60;90.40
22544;DHT22;11438;52.044;8.716;2023-03-01T00:32:25;2.60;90.40
22544;DHT22;11438;52.044;8.716;2023-03-01T00:34:51;2.50;90.40
22544;DHT22;11438;52.044;8.716;2023-03-01T00:37:23;2.50;90.50
22544;DHT22;11438;52.044;8.716;2023-03-01T00:39:49;2.50;90.60
22544;DHT22;11438;52.044;8.716;2023-03-01T00:42:15;2.50;90.60
22544;DHT22;11438;52.044;8.716;2023-03-01T00:44:41;2.40;90.60
22544;DHT22;11438;52.044;8.716;2023-03-01T00:47:06;2.40;90.60
22544;DHT22;11438;52.044;8.716;2023-03-01T00:49:32;2.30;90.60
22544;DHT22;11438;52.044;8.716;2023-03-01T00:51:57;2.30;90.70
22544;DHT22;11438;52.044;8.716;2023-03-01T00:54:23;2.30;90.70
22544;DHT22;11438;52.044;8.716;2023-03-01T00:56:48;2.30;90.70
22544;DHT22;11438;52.044;8.716;2023-03-01T00:59:14;2.20;90.70
22544;DHT22;11438;52.044;8.716;2023-03-01T01:01:40;2.20;90.70
22544;DHT22;11438;52.044;8.716;2023-03-01T01:04:08;2.20;90.80
22544;DHT22;11438;52.044;8.716;2023-03-01T01:06:37;2.20;90.80
22544;DHT22;11438;52.044;8.716;2023-03-01T01:09:05;2.10;90.80
22544;DHT22;11438;52.044;8.716;2023-03-01T01:11:31;2.10;91.20
22544;DHT22;11438;52.044;8.716;2023-03-01T01:13:57;2.10;90.90
22544;DHT22;11438;52.044;8.716;2023-03-01T01:16:25;2.10;90.90
22544;DHT22;11438;52.044;8.716;2023-03-01T01:18:51;2.10;91.00
22544;DHT22;11438;52.044;8.716;2023-03-01T01:21:19;2.00;90.90
22544;DHT22;11438;52.044;8.716;2023-03-01T01:23:45;2.00;90.90
22544;DHT22;11438;52.044;8.716;2023-03-01T01:26:14;2.00;91.00
22544;DHT22;11438;52.044;8.716;2023-03-01T01:28:39;2.00;91.00
22544;DHT22;11438;52.044;8.716;2023-03-01T01:31:05;2.00;91.00
22544;DHT22;11438;52.044;8.716;2023-03-01T01:33:31;2.00;91.00
22544;DHT22;11438;52.044;8.716;2023-03-01T01:35:56;2.00;91.00
22544;DHT22;11438;52.044;8.716;2023-03-01T01:38:23;2.00;91.00
22544;DHT22;11438;52.044;8.716;2023-03-01T01:40:49;2.00;91.00
22544;DHT22;11438;52.044;8.716;2023-03-01T01:43:22;2.00;91.10
22544;DHT22;11438;52.044;8.716;2023-03-01T01:45:48;2.00;91.10
22544;DHT22;11438;52.044;8.716;2023-03-01T01:48:19;1.90;91.00
22544;DHT22;11438;52.044;8.716;2023-03-01T01:50:49;1.90;91.00
22544;DHT22;11438;52.044;8.716;2023-03-01T01:53:18;1.90;91.00
22544;DHT22;11438;52.044;8.716;2023-03-01T01:55:56;1.90;90.90
22544;DHT22;11438;52.044;8.716;2023-03-01T01:58:24;1.90;90.90
22544;DHT22;11438;52.044;8.716;2023-03-01T02:00:53;1.90;90.90
22544;DHT22;11438;52.044;8.716;2023-03-01T02:03:25;1.80;90.90
22544;DHT22;11438;52.044;8.716;2023-03-01T02:05:58;1.80;90.90
22544;DHT22;11438;52.044;8.716;2023-03-01T02:08:29;1.80;90.90
22544;DHT22;11438;52.044;8.716;2023-03-01T02:10:56;1.80;91.00
22544;DHT22;11438;52.044;8.716;2023-03-01T02:13:23;1.70;91.00
22544;DHT22;11438;52.044;8.716;2023-03-01T02:15:49;1.70;91.00
22544;DHT22;11438;52.044;8.716;2023-03-01T02:18:17;1.70;91.00
22544;DHT22;11438;52.044;8.716;2023-03-01T02:21:21;1.70;91.10
22544;DHT22;11438;52.044;8.716;2023-03-01T02:23:53;1.60;91.10
22544;DHT22;11438;52.044;8.716;2023-03-01T02:26:33;1.60;91.00
22544;DHT22;11438;52.044;8.716;2023-03-01T02:29:00;1.60;91.10
22544;DHT22;11438;52.044;8.716;2023-03-01T02:31:26;1.60;91.10
22544;DHT22;11438;52.044;8.716;2023-03-01T02:34:09;1.50;91.00
22544;DHT22;11438;52.044;8.716;2023-03-01T02:36:38;1.50;91.00
22544;DHT22;11438;52.044;8.716;2023-03-01T02:39:07;1.50;91.10
22544;DHT22;11438;52.044;8.716;2023-03-01T02:41:41;1.50;91.10
22544;DHT22;11438;52.044;8.716;2023-03-01T02:44:08;1.50;91.10
22544;DHT22;11438;52.044;8.716;2023-03-01T02:46:35;1.40;91.10
22544;DHT22;11438;52.044;8.716;2023-03-01T02:49:27;1.40;91.10
22544;DHT22;11438;52.044;8.716;2023-03-01T02:55:11;1.30;91.20
22544;DHT22;11438;52.044;8.716;2023-03-01T02:57:40;1.40;91.10
22544;DHT22;11438;52.044;8.716;2023-03-01T03:00:09;1.30;91.20
22544;DHT22;11438;52.044;8.716;2023-03-01T03:02:36;1.30;91.20
22544;DHT22;11438;52.044;8.716;2023-03-01T03:05:04;1.30;91.20
22544;DHT22;11438;52.044;8.716;2023-03-01T03:07:32;1.30;91.20
22544;DHT22;11438;52.044;8.716;2023-03-01T03:09:58;1.20;91.20
22544;DHT22;11438;52.044;8.716;2023-03-01T03:12:23;1.20;91.20
22544;DHT22;11438;52.044;8.716;2023-03-01T03:14:49;1.20;91.30
22544;DHT22;11438;52.044;8.716;2023-03-01T03:17:14;1.20;91.30
22544;DHT22;11438;52.044;8.716;2023-03-01T03:19:40;1.20;91.70
22544;DHT22;11438;52.044;8.716;2023-03-01T03:22:05;1.20;91.30
22544;DHT22;11438;52.044;8.716;2023-03-01T03:24:31;1.10;91.30
22544;DHT22;11438;52.044;8.716;2023-03-01T03:27:06;1.10;91.30
22544;DHT22;11438;52.044;8.716;2023-03-01T03:29:32;1.10;91.30
22544;DHT22;11438;52.044;8.716;2023-03-01T03:31:58;1.10;91.30
22544;DHT22;11438;52.044;8.716;2023-03-01T03:34:24;1.10;91.30
22544;DHT22;11438;52.044;8.716;2023-03-01T03:36:56;1.10;91.30
22544;DHT22;11438;52.044;8.716;2023-03-01T03:39:25;1.00;91.30
22544;DHT22;11438;52.044;8.716;2023-03-01T03:41:51;1.00;91.30
22544;DHT22;11438;52.044;8.716;2023-03-01T03:44:17;1.00;91.30
22544;DHT22;11438;52.044;8.716;2023-03-01T03:46:42;1.00;91.30
22544;DHT22;11438;52.044;8.716;2023-03-01T03:49:07;1.00;91.30
22544;DHT22;11438;52.044;8.716;2023-03-01T03:51:33;0.90;91.30
22544;DHT22;11438;52.044;8.716;2023-03-01T03:53:58;0.90;91.30
22544;DHT22;11438;52.044;8.716;2023-03-01T03:56:24;0.90;91.30
22544;DHT22;11438;52.044;8.716;2023-03-01T03:58:51;0.90;91.30
22544;DHT22;11438;52.044;8.716;2023-03-01T04:01:17;0.90;91.40
22544;DHT22;11438;52.044;8.716;2023-03-01T04:03:43;0.80;91.40
22544;DHT22;11438;52.044;8.716;2023-03-01T04:06:14;0.80;91.40
22544;DHT22;11438;52.044;8.716;2023-03-01T04:08:40;0.80;91.40
22544;DHT22;11438;52.044;8.716;2023-03-01T04:11:06;0.80;91.50
22544;DHT22;11438;52.044;8.716;2023-03-01T04:13:53;0.80;91.60
22544;DHT22;11438;52.044;8.716;2023-03-01T04:16:19;0.80;91.60
22544;DHT22;11438;52.044;8.716;2023-03-01T04:18:44;0.70;91.60
22544;DHT22;11438;52.044;8.716;2023-03-01T04:21:10;0.70;91.60
22544;DHT22;11438;52.044;8.716;2023-03-01T04:23:37;0.70;91.60
22544;DHT22;11438;52.044;8.716;2023-03-01T04:26:03;0.70;91.70
22544;DHT22;11438;52.044;8.716;2023-03-01T04:28:31;0.70;91.70
22544;DHT22;11438;52.044;8.716;2023-03-01T04:31:06;0.70;91.70
22544;DHT22;11438;52.044;8.716;2023-03-01T04:33:48;0.70;91.70
22544;DHT22;11438;52.044;8.716;2023-03-01T04:36:15;0.70;91.70
22544;DHT22;11438;52.044;8.716;2023-03-01T04:38:41;0.70;91.60
22544;DHT22;11438;52.044;8.716;2023-03-01T04:41:09;0.70;91.70
22544;DHT22;11438;52.044;8.716;2023-03-01T04:43:35;0.70;91.70
22544;DHT22;11438;52.044;8.716;2023-03-01T04:46:09;0.70;91.70
22544;DHT22;11438;52.044;8.716;2023-03-01T04:48:37;0.70;91.70
22544;DHT22;11438;52.044;8.716;2023-03-01T04:51:03;0.70;91.70
22544;DHT22;11438;52.044;8.716;2023-03-01T04:53:29;0.70;91.70
22544;DHT22;11438;52.044;8.716;2023-03-01T04:55:55;0.70;91.70
22544;DHT22;11438;52.044;8.716;2023-03-01T04:58:26;0.70;91.70
22544;DHT22;11438;52.044;8.716;2023-03-01T05:00:53;0.60;91.60
22544;DHT22;11438;52.044;8.716;2023-03-01T05:03:19;0.60;91.60
22544;DHT22;11438;52.044;8.716;2023-03-01T05:05:48;0.60;91.60
22544;DHT22;11438;52.044;8.716;2023-03-01T05:08:15;0.60;91.60
22544;DHT22;11438;52.044;8.716;2023-03-01T05:10:50;0.50;91.60
22544;DHT22;11438;52.044;8.716;2023-03-01T05:13:16;0.50;91.60
22544;DHT22;11438;52.044;8.716;2023-03-01T05:15:59;0.50;91.50
22544;DHT22;11438;52.044;8.716;2023-03-01T05:18:26;0.50;91.50
22544;DHT22;11438;52.044;8.716;2023-03-01T05:20:56;0.50;91.50
22544;DHT22;11438;52.044;8.716;2023-03-01T05:23:24;0.50;91.50
22544;DHT22;11438;52.044;8.716;2023-03-01T05:25:49;0.40;91.50
22544;DHT22;11438;52.044;8.716;2023-03-01T05:28:17;0.40;91.60
22544;DHT22;11438;52.044;8.716;2023-03-01T05:30:43;0.40;91.60
22544;DHT22;11438;52.044;8.716;2023-03-01T05:33:09;0.40;91.60
22544;DHT22;11438;52.044;8.716;2023-03-01T05:35:41;0.40;91.60
22544;DHT22;11438;52.044;8.716;2023-03-01T05:38:08;0.40;91.60
22544;DHT22;11438;52.044;8.716;2023-03-01T05:40:34;0.30;91.60
22544;DHT22;11438;52.044;8.716;2023-03-01T05:42:59;0.30;91.60
22544;DHT22;11438;52.044;8.716;2023-03-01T05:45:26;0.30;91.60
22544;DHT22;11438;52.044;8.716;2023-03-01T05:47:52;0.30;91.50
22544;DHT22;11438;52.044;8.716;2023-03-01T05:50:25;0.30;91.50
22544;DHT22;11438;52.044;8.716;2023-03-01T05:55:22;0.20;91.60
22544;DHT22;11438;52.044;8.716;2023-03-01T05:57:48;0.20;91.60
22544;DHT22;11438;52.044;8.716;2023-03-01T06:00:16;0.20;91.60
22544;DHT22;11438;52.044;8.716;2023-03-01T06:02:42;0.20;91.60
22544;DHT22;11438;52.044;8.716;2023-03-01T06:05:10;0.10;91.70
22544;DHT22;11438;52.044;8.716;2023-03-01T06:07:35;0.10;91.70
22544;DHT22;11438;52.044;8.716;2023-03-01T06:10:05;0.10;91.70
22544;DHT22;11438;52.044;8.716;2023-03-01T06:12:32;0.10;91.70
22544;DHT22;11438;52.044;8.716;2023-03-01T06:15:28;0.10;91.80
22544;DHT22;11438;52.044;8.716;2023-03-01T06:17:54;0.10;91.80
22544;DHT22;11438;52.044;8.716;2023-03-01T06:20:24;0.10;91.80
22544;DHT22;11438;52.044;8.716;2023-03-01T06:22:50;0.10;91.90
22544;DHT22;11438;52.044;8.716;2023-03-01T06:25:18;0.10;91.90
22544;DHT22;11438;52.044;8.716;2023-03-01T06:27:44;0.10;91.90
22544;DHT22;11438;52.044;8.716;2023-03-01T06:30:12;0.10;91.90
22544;DHT22;11438;52.044;8.716;2023-03-01T06:32:39;0.10;91.90
22544;DHT22;11438;52.044;8.716;2023-03-01T06:35:12;0.10;91.90
22544;DHT22;11438;52.044;8.716;2023-03-01T06:37:38;0.10;91.90
22544;DHT22;11438;52.044;8.716;2023-03-01T06:40:05;0.20;92.00
22544;DHT22;11438;52.044;8.716;2023-03-01T06:42:34;0.10;92.00
22544;DHT22;11438;52.044;8.716;2023-03-01T06:45:00;0.20;92.00
22544;DHT22;11438;52.044;8.716;2023-03-01T06:47:25;0.20;92.00
22544;DHT22;11438;52.044;8.716;2023-03-01T06:49:51;0.20;91.90
22544;DHT22;11438;52.044;8.716;2023-03-01T06:52:16;0.10;91.90
22544;DHT22;11438;52.044;8.716;2023-03-01T06:54:41;0.20;91.90
22544;DHT22;11438;52.044;8.716;2023-03-01T06:57:07;0.20;91.90
22544;DHT22;11438;52.044;8.716;2023-03-01T06:59:32;0.20;91.90
22544;DHT22;11438;52.044;8.716;2023-03-01T07:01:58;0.20;92.30
22544;DHT22;11438;52.044;8.716;2023-03-01T07:04:23;0.20;92.00
22544;DHT22;11438;52.044;8.716;2023-03-01T07:06:49;0.20;92.00
22544;DHT22;11438;52.044;8.716;2023-03-01T07:09:23;0.20;92.10
22544;DHT22;11438;52.044;8.716;2023-03-01T07:11:49;0.20;92.20
22544;DHT22;11438;52.044;8.716;2023-03-01T07:14:15;0.20;92.30
22544;DHT22;11438;52.044;8.716;2023-03-01T07:16:40;0.20;92.40
22544;DHT22;11438;52.044;8.716;2023-03-01T07:19:06;0.20;92.40
22544;DHT22;11438;52.044;8.716;2023-03-01T07:21:31;0.30;92.50
22544;DHT22;11438;52.044;8.716;2023-03-01T07:23:57;0.30;92.50
22544;DHT22;11438;52.044;8.716;2023-03-01T07:26:23;0.30;92.60
22544;DHT22;11438;52.044;8.716;2023-03-01T07:28:48;0.30;92.70
22544;DHT22;11438;52.044;8.716;2023-03-01T07:31:14;0.30;92.70
22544;DHT22;11438;52.044;8.716;2023-03-01T07:33:39;0.30;92.70
22544;DHT22;11438;52.044;8.716;2023-03-01T07:36:05;0.40;92.80
22544;DHT22;11438;52.044;8.716;2023-03-01T07:38:31;0.40;92.80
22544;DHT22;11438;52.044;8.716;2023-03-01T07:41:02;0.40;92.90
22544;DHT22;11438;52.044;8.716;2023-03-01T07:43:31;0.50;93.00
22544;DHT22;11438;52.044;8.716;2023-03-01T07:46:00;0.50;93.00
22544;DHT22;11438;52.044;8.716;2023-03-01T07:48:27;0.50;93.10
22544;DHT22;11438;52.044;8.716;2023-03-01T07:50:52;0.60;93.10
22544;DHT22;11438;52.044;8.716;2023-03-01T07:53:18;0.60;93.20
22544;DHT22;11438;52.044;8.716;2023-03-01T07:55:43;0.60;93.30
22544;DHT22;11438;52.044;8.716;2023-03-01T07:58:09;0.70;93.40
22544;DHT22;11438;52.044;8.716;2023-03-01T08:00:34;0.70;93.80
22544;DHT22;11438;52.044;8.716;2023-03-01T08:03:00;0.70;93.50
22544;DHT22;11438;52.044;8.716;2023-03-01T08:05:26;0.80;93.60
22544;DHT22;11438;52.044;8.716;2023-03-01T08:07:52;0.60;94.90
22544;DHT22;11438;52.044;8.716;2023-03-01T08:10:18;0.70;94.80
22544;DHT22;11438;52.044;8.716;2023-03-01T08:12:43;0.80;94.60
22544;DHT22;11438;52.044;8.716;2023-03-01T08:15:09;0.90;94.60
22544;DHT22;11438;52.044;8.716;2023-03-01T08:17:35;1.00;94.50
22544;DHT22;11438;52.044;8.716;2023-03-01T08:20:00;1.10;94.40
22544;DHT22;11438;52.044;8.716;2023-03-01T08:22:26;1.10;94.40
22544;DHT22;11438;52.044;8.716;2023-03-01T08:24:51;1.20;94.80
22544;DHT22;11438;52.044;8.716;2023-03-01T08:27:17;1.30;94.40
22544;DHT22;11438;52.044;8.716;2023-03-01T08:29:43;1.30;94.50
22544;DHT22;11438;52.044;8.716;2023-03-01T08:32:08;1.40;94.60
22544;DHT22;11438;52.044;8.716;2023-03-01T08:34:34;1.40;94.60
22544;DHT22;11438;52.044;8.716;2023-03-01T08:37:01;1.50;94.70
22544;DHT22;11438;52.044;8.716;2023-03-01T08:39:27;1.50;94.80
22544;DHT22;11438;52.044;8.716;2023-03-01T08:41:52;1.60;94.90
22544;DHT22;11438;52.044;8.716;2023-03-01T08:44:18;1.60;95.00
22544;DHT22;11438;52.044;8.716;2023-03-01T08:46:46;1.70;95.10
22544;DHT22;11438;52.044;8.716;2023-03-01T08:49:17;1.70;95.20
22544;DHT22;11438;52.044;8.716;2023-03-01T08:51:44;1.80;95.30
22544;DHT22;11438;52.044;8.716;2023-03-01T08:54:18;1.80;95.30
22544;DHT22;11438;52.044;8.716;2023-03-01T08:56:44;1.90;95.50
22544;DHT22;11438;52.044;8.716;2023-03-01T08:59:11;2.00;95.50
22544;DHT22;11438;52.044;8.716;2023-03-01T09:01:37;2.10;95.60
22544;DHT22;11438;52.044;8.716;2023-03-01T09:04:03;2.10;95.60
22544;DHT22;11438;52.044;8.716;2023-03-01T09:06:33;2.10;95.70
22544;DHT22;11438;52.044;8.716;2023-03-01T09:08:59;2.20;95.80
22544;DHT22;11438;52.044;8.716;2023-03-01T09:11:25;2.30;95.90
22544;DHT22;11438;52.044;8.716;2023-03-01T09:13:50;2.40;95.90
22544;DHT22;11438;52.044;8.716;2023-03-01T09:16:19;2.40;95.90
22544;DHT22;11438;52.044;8.716;2023-03-01T09:18:45;2.50;96.00
22544;DHT22;11438;52.044;8.716;2023-03-01T09:21:15;2.60;96.00
22544;DHT22;11438;52.044;8.716;2023-03-01T09:23:42;2.60;95.90
22544;DHT22;11438;52.044;8.716;2023-03-01T09:26:11;2.70;95.90
22544;DHT22;11438;52.044;8.716;2023-03-01T09:28:37;2.70;95.90
22544;DHT22;11438;52.044;8.716;2023-03-01T09:31:04;2.80;95.90
22544;DHT22;11438;52.044;8.716;2023-03-01T09:33:31;2.90;95.90
22544;DHT22;11438;52.044;8.716;2023-03-01T09:36:03;2.90;95.90
22544;DHT22;11438;52.044;8.716;2023-03-01T09:38:29;3.00;95.90
22544;DHT22;11438;52.044;8.716;2023-03-01T09:40:55;3.10;96.20
22544;DHT22;11438;52.044;8.716;2023-03-01T09:43:34;3.20;95.80
22544;DHT22;11438;52.044;8.716;2023-03-01T09:46:07;3.30;95.80
22544;DHT22;11438;52.044;8.716;2023-03-01T09:48:42;3.40;95.70
22544;DHT22;11438;52.044;8.716;2023-03-01T09:51:14;3.40;95.40
22544;DHT22;11438;52.044;8.716;2023-03-01T09:53:42;3.50;95.20
22544;DHT22;11438;52.044;8.716;2023-03-01T09:56:13;3.60;95.00
22544;DHT22;11438;52.044;8.716;2023-03-01T10:01:28;3.70;94.90
22544;DHT22;11438;52.044;8.716;2023-03-01T10:06:29;3.90;94.80
22544;DHT22;11438;52.044;8.716;2023-03-01T10:08:58;4.00;94.80
22544;DHT22;11438;52.044;8.716;2023-03-01T10:11:31;4.00;94.70
22544;DHT22;11438;52.044;8.716;2023-03-01T10:14:03;4.10;94.60
22544;DHT22;11438;52.044;8.716;2023-03-01T10:19:12;4.30;94.40
22544;DHT22;11438;52.044;8.716;2023-03-01T10:21:44;4.30;94.30
22544;DHT22;11438;52.044;8.716;2023-03-01T10:24:13;4.40;94.10
22544;DHT22;11438;52.044;8.716;2023-03-01T10:29:13;4.60;93.70
22544;DHT22;11438;52.044;8.716;2023-03-01T10:34:11;4.70;93.60
22544;DHT22;11438;52.044;8.716;2023-03-01T10:36:38;4.70;93.50
22544;DHT22;11438;52.044;8.716;2023-03-01T10:39:21;4.80;93.40
22544;DHT22;11438;52.044;8.716;2023-03-01T10:41:59;4.90;93.40
22544;DHT22;11438;52.044;8.716;2023-03-01T10:44:44;5.00;93.30
22544;DHT22;11438;52.044;8.716;2023-03-01T10:47:14;5.10;92.90
22544;DHT22;11438;52.044;8.716;2023-03-01T10:52:28;5.20;93.00
22544;DHT22;11438;52.044;8.716;2023-03-01T10:55:02;5.30;93.00
22544;DHT22;11438;52.044;8.716;2023-03-01T10:57:32;5.40;92.70
22544;DHT22;11438;52.044;8.716;2023-03-01T11:00:24;5.50;92.20
22544;DHT22;11438;52.044;8.716;2023-03-01T11:03:11;5.50;91.90
22544;DHT22;11438;52.044;8.716;2023-03-01T11:05:57;5.60;91.70
22544;DHT22;11438;52.044;8.716;2023-03-01T11:08:52;5.70;91.50
22544;DHT22;11438;52.044;8.716;2023-03-01T11:11:23;5.80;91.30
22544;DHT22;11438;52.044;8.716;2023-03-01T11:13:55;5.90;91.20
22544;DHT22;11438;52.044;8.716;2023-03-01T11:16:36;6.00;90.70
22544;DHT22;11438;52.044;8.716;2023-03-01T11:21:37;6.10;90.20
22544;DHT22;11438;52.044;8.716;2023-03-01T11:24:09;6.20;89.20
22544;DHT22;11438;52.044;8.716;2023-03-01T11:26:38;6.20;88.80
22544;DHT22;11438;52.044;8.716;2023-03-01T11:29:12;6.30;89.20
22544;DHT22;11438;52.044;8.716;2023-03-01T11:31:42;6.40;88.30
22544;DHT22;11438;52.044;8.716;2023-03-01T11:34:13;6.40;88.30
22544;DHT22;11438;52.044;8.716;2023-03-01T11:36:59;6.50;87.70
22544;DHT22;11438;52.044;8.716;2023-03-01T11:45:09;6.70;86.80
22544;DHT22;11438;52.044;8.716;2023-03-01T11:50:23;6.80;86.20
22544;DHT22;11438;52.044;8.716;2023-03-01T11:56:27;6.90;85.80
22544;DHT22;11438;52.044;8.716;2023-03-01T12:04:36;7.10;83.90
22544;DHT22;11438;52.044;8.716;2023-03-01T12:15:17;7.30;83.30
22544;DHT22;11438;52.044;8.716;2023-03-01T12:18:14;7.40;83.10
22544;DHT22;11438;52.044;8.716;2023-03-01T12:26:14;7.60;83.70
22544;DHT22;11438;52.044;8.716;2023-03-01T12:31:34;7.70;83.20
22544;DHT22;11438;52.044;8.716;2023-03-01T12:34:19;7.70;82.20
22544;DHT22;11438;52.044;8.716;2023-03-01T12:37:00;7.80;82.30
22544;DHT22;11438;52.044;8.716;2023-03-01T12:39:58;7.80;81.50
22544;DHT22;11438;52.044;8.716;2023-03-01T12:50:46;8.00;79.50
22544;DHT22;11438;52.044;8.716;2023-03-01T12:53:34;8.10;78.20
22544;DHT22;11438;52.044;8.716;2023-03-01T12:56:05;8.10;77.10
22544;DHT22;11438;52.044;8.716;2023-03-01T12:58:50;8.20;76.30
22544;DHT22;11438;52.044;8.716;2023-03-01T13:01:36;8.20;76.50
22544;DHT22;11438;52.044;8.716;2023-03-01T13:07:13;8.30;76.00
22544;DHT22;11438;52.044;8.716;2023-03-01T13:09:41;8.40;75.70
22544;DHT22;11438;52.044;8.716;2023-03-01T13:12:44;8.40;75.70
22544;DHT22;11438;52.044;8.716;2023-03-01T13:17:49;8.50;74.00
22544;DHT22;11438;52.044;8.716;2023-03-01T13:20:29;8.50;72.80
22544;DHT22;11438;52.044;8.716;2023-03-01T13:25:33;8.60;73.40
22544;DHT22;11438;52.044;8.716;2023-03-01T13:31:09;8.70;73.60
22544;DHT22;11438;52.044;8.716;2023-03-01T13:33:53;8.70;72.40
22544;DHT22;11438;52.044;8.716;2023-03-01T13:46:44;8.90;73.20
22544;DHT22;11438;52.044;8.716;2023-03-01T13:49:16;8.90;73.60
22544;DHT22;11438;52.044;8.716;2023-03-01T13:51:46;8.90;73.70
22544;DHT22;11438;52.044;8.716;2023-03-01T13:54:15;9.00;74.10
22544;DHT22;11438;52.044;8.716;2023-03-01T13:56:41;9.00;73.10
22544;DHT22;11438;52.044;8.716;2023-03-01T13:59:17;9.00;72.90
22544;DHT22;11438;52.044;8.716;2023-03-01T14:01:43;9.10;72.70
22544;DHT22;11438;52.044;8.716;2023-03-01T14:04:21;9.10;72.80
22544;DHT22;11438;52.044;8.716;2023-03-01T14:06:47;9.10;73.40
22544;DHT22;11438;52.044;8.716;2023-03-01T14:09:22;9.20;73.30
22544;DHT22;11438;52.044;8.716;2023-03-01T14:12:16;9.20;72.30
22544;DHT22;11438;52.044;8.716;2023-03-01T14:15:18;9.20;72.90
22544;DHT22;11438;52.044;8.716;2023-03-01T14:17:55;9.20;73.30
22544;DHT22;11438;52.044;8.716;2023-03-01T14:20:27;9.30;72.90
22544;DHT22;11438;52.044;8.716;2023-03-01T14:22:55;9.30;73.00
22544;DHT22;11438;52.044;8.716;2023-03-01T14:25:34;9.30;72.60
22544;DHT22;11438;52.044;8.716;2023-03-01T14:28:13;9.30;72.70
22544;DHT22;11438;52.044;8.716;2023-03-01T14:30:45;9.30;73.00
22544;DHT22;11438;52.044;8.716;2023-03-01T14:33:28;9.30;72.50
22544;DHT22;11438;52.044;8.716;2023-03-01T14:36:04;9.30;71.90
22544;DHT22;11438;52.044;8.716;2023-03-01T14:38:36;9.40;73.20
22544;DHT22;11438;52.044;8.716;2023-03-01T14:41:07;9.30;72.40
22544;DHT22;11438;52.044;8.716;2023-03-01T14:43:34;9.30;71.60
22544;DHT22;11438;52.044;8.716;2023-03-01T14:46:00;9.30;71.40
22544;DHT22;11438;52.044;8.716;2023-03-01T14:48:27;9.30;71.60
22544;DHT22;11438;52.044;8.716;2023-03-01T14:50:54;9.40;71.50
22544;DHT22;11438;52.044;8.716;2023-03-01T14:53:25;9.40;71.70
22544;DHT22;11438;52.044;8.716;2023-03-01T14:55:59;9.40;71.50
22544;DHT22;11438;52.044;8.716;2023-03-01T14:58:27;9.40;71.30
22544;DHT22;11438;52.044;8.716;2023-03-01T15:00:55;9.40;71.00
22544;DHT22;11438;52.044;8.716;2023-03-01T15:03:33;9.40;71.20
22544;DHT22;11438;52.044;8.716;2023-03-01T15:06:03;9.40;70.80
22544;DHT22;11438;52.044;8.716;2023-03-01T15:08:29;9.40;70.90
22544;DHT22;11438;52.044;8.716;2023-03-01T15:11:01;9.40;71.10
22544;DHT22;11438;52.044;8.716;2023-03-01T15:13:30;9.40;71.80
22544;DHT22;11438;52.044;8.716;2023-03-01T15:18:30;9.40;71.30
22544;DHT22;11438;52.044;8.716;2023-03-01T15:20:56;9.40;71.70
22544;DHT22;11438;52.044;8.716;2023-03-01T15:23:30;9.40;71.40
22544;DHT22;11438;52.044;8.716;2023-03-01T15:25:56;9.40;70.60
22544;DHT22;11438;52.044;8.716;2023-03-01T15:28:34;9.40;70.10
22544;DHT22;11438;52.044;8.716;2023-03-01T15:31:24;9.40;70.20
22544;DHT22;11438;52.044;8.716;2023-03-01T15:33:51;9.40;70.10
22544;DHT22;11438;52.044;8.716;2023-03-01T15:36:35;9.50;71.00
22544;DHT22;11438;52.044;8.716;2023-03-01T15:39:02;9.40;70.40
22544;DHT22;11438;52.044;8.716;2023-03-01T15:41:31;9.40;70.90
22544;DHT22;11438;52.044;8.716;2023-03-01T15:43:58;9.40;70.90
22544;DHT22;11438;52.044;8.716;2023-03-01T15:46:33;9.40;71.50
22544;DHT22;11438;52.044;8.716;2023-03-01T15:49:23;9.40;70.80
22544;DHT22;11438;52.044;8.716;2023-03-01T15:51:53;9.40;71.50
22544;DHT22;11438;52.044;8.716;2023-03-01T15:54:22;9.40;71.60
22544;DHT22;11438;52.044;8.716;2023-03-01T15:56:48;9.40;71.50
22544;DHT22;11438;52.044;8.716;2023-03-01T15:59:13;9.40;71.90
22544;DHT22;11438;52.044;8.716;2023-03-01T16:01:40;9.50;73.00
22544;DHT22;11438;52.044;8.716;2023-03-01T16:04:06;9.50;73.00
22544;DHT22;11438;52.044;8.716;2023-03-01T16:06:32;9.50;72.90
22544;DHT22;11438;52.044;8.716;2023-03-01T16:08:57;9.60;72.20
22544;DHT22;11438;52.044;8.716;2023-03-01T16:11:23;9.70;72.50
22544;DHT22;11438;52.044;8.716;2023-03-01T16:13:48;9.80;73.80
22544;DHT22;11438;52.044;8.716;2023-03-01T16:16:16;9.90;74.20
22544;DHT22;11438;52.044;8.716;2023-03-01T16:18:43;10.10;74.70
22544;DHT22;11438;52.044;8.716;2023-03-01T16:21:27;10.30;74.40
22544;DHT22;11438;52.044;8.716;2023-03-01T16:23:53;10.50;74.20
22544;DHT22;11438;52.044;8.716;2023-03-01T16:26:19;10.70;74.20
22544;DHT22;11438;52.044;8.716;2023-03-01T16:28:45;10.80;74.40
22544;DHT22;11438;52.044;8.716;2023-03-01T16:31:11;10.90;73.50
22544;DHT22;11438;52.044;8.716;2023-03-01T16:33:37;11.00;72.40
22544;DHT22;11438;52.044;8.716;2023-03-01T16:36:11;11.00;72.50
22544;DHT22;11438;52.044;8.716;2023-03-01T16:38:38;10.90;73.20
22544;DHT22;11438;52.044;8.716;2023-03-01T16:41:04;10.80;72.50
22544;DHT22;11438;52.044;8.716;2023-03-01T16:43:31;10.80;71.60
22544;DHT22;11438;52.044;8.716;2023-03-01T16:45:57;10.70;71.10
22544;DHT22;11438;52.044;8.716;2023-03-01T16:48:24;10.60;70.90
22544;DHT22;11438;52.044;8.716;2023-03-01T16:50:57;10.50;70.90
22544;DHT22;11438;52.044;8.716;2023-03-01T16:53:23;10.30;70.60
22544;DHT22;11438;52.044;8.716;2023-03-01T16:55:58;10.10;70.90
22544;DHT22;11438;52.044;8.716;2023-03-01T16:58:24;10.00;71.30
22544;DHT22;11438;52.044;8.716;2023-03-01T17:00:51;9.80;71.40
22544;DHT22;11438;52.044;8.716;2023-03-01T17:03:19;9.70;71.20
22544;DHT22;11438;52.044;8.716;2023-03-01T17:05:45;9.50;71.30
22544;DHT22;11438;52.044;8.716;2023-03-01T17:08:10;9.40;71.40
22544;DHT22;11438;52.044;8.716;2023-03-01T17:10:36;9.30;71.80
22544;DHT22;11438;52.044;8.716;2023-03-01T17:13:01;9.10;72.10
22544;DHT22;11438;52.044;8.716;2023-03-01T17:15:27;9.00;72.40
22544;DHT22;11438;52.044;8.716;2023-03-01T17:17:52;8.90;72.40
22544;DHT22;11438;52.044;8.716;2023-03-01T17:20:18;8.80;72.70
22544;DHT22;11438;52.044;8.716;2023-03-01T17:22:44;8.70;73.20
22544;DHT22;11438;52.044;8.716;2023-03-01T17:25:10;8.60;73.20
22544;DHT22;11438;52.044;8.716;2023-03-01T17:27:37;8.50;73.40
22544;DHT22;11438;52.044;8.716;2023-03-01T17:30:04;8.40;73.20